This is the latest recevied weather packets stored in our database for station/object W6KRP-12. If no packets are shown the sender has not sent any weather packets the latest 10 day(s).
| Time | Temp. | Humidity | Pressure | Rain* | Wind** | Luminosity | Snow |
|---|---|---|---|---|---|---|---|
| 1777834205 | 22.78° C | 31% | 1016 hPa | 0 mm | - | - | - |
| 1777833005 | 21.67° C | 33% | 1016.1 hPa | 0 mm | - | - | - |
| 1777822206 | 16.67° C | 46% | 1017.9 hPa | 0 mm | - | - | - |
| 1777818605 | 15.56° C | 47% | 1017.5 hPa | 0 mm | - | - | - |
| 1777812006 | 11.67° C | 83% | 1017.2 hPa | 0 mm | - | - | - |
| 1777809606 | 9.44° C | 98% | 1016.7 hPa | 0.25 mm | - | - | - |
| 1777808406 | 8.89° C | 98% | 1016.4 hPa | 0.25 mm | - | - | - |
| 1777803006 | 7.22° C | 98% | 1014.9 hPa | 0 mm | - | - | - |
| 1777801206 | 7.22° C | 98% | 1014.6 hPa | 0 mm | - | - | - |
| 1777797606 | 7.78° C | 98% | 1014.3 hPa | 0 mm | - | - | - |
| 1777797005 | 7.78° C | 98% | 1014.2 hPa | 0 mm | - | - | - |
| 1777794006 | 8.33° C | 98% | 1013.7 hPa | 0 mm | - | - | - |
| 1777789206 | 9.44° C | 98% | 1013.1 hPa | 0 mm | - | - | - |
| 1777787405 | 9.44° C | 98% | 1013.1 hPa | 0 mm | - | - | - |
| 1777784406 | 10.56° C | 98% | 1012.9 hPa | 0 mm | - | - | - |
| 1777778406 | 11.67° C | 97% | 1011.9 hPa | 0 mm | - | - | - |
| 1777775406 | 12.22° C | 97% | 1011.5 hPa | 0 mm | - | - | - |
| 1777773006 | 12.22° C | 96% | 1011 hPa | 0 mm | - | - | - |
| 1777771806 | 12.22° C | 96% | 1011 hPa | 0 mm | - | - | - |
| 1777770006 | 12.22° C | 95% | 1010.4 hPa | 0 mm | - | - | - |
| 1777765206 | 12.78° C | 96% | 1009.3 hPa | 0 mm | - | - | - |
| 1777763406 | 13.33° C | 95% | 1009.1 hPa | 0 mm | - | - | - |
| 1777755606 | 13.89° C | 96% | 1008.1 hPa | 0.51 mm | - | - | - |
| 1777750806 | 13.89° C | 94% | 1008.3 hPa | 1.02 mm | - | - | - |
| 1777744806 | 13.89° C | 96% | 1008.5 hPa | 1.27 mm | - | - | - |
* Rain latest hour (hover to see other rain measurements)
** Current wind speed in m/s (hover to see current wind gust speed)